Terminal Aerodrome Forecast
Issued by NWS

Home | Current Version | Previous Version | Text Only | Print | Product List | Glossary On
Versions: 1 2 3 4 5 6 7 8 9 10 11 12 13 14 15 16 17 18 19 20 21 22 23 24 25 26 27 28 29
000
FTUS43 KDVN 242352
TAFBRL
TAF
KBRL 242352Z 2500/2524 20012KT P6SM VCTS BKN040CB
      TEMPO 2500/2503 4SM TSRA BR BKN012 OVC025CB
     FM250300 15009KT 3SM -SHRA BR OVC012
     FM251100 23013G21KT 5SM BR VCSH BKN020
     FM251500 22013KT P6SM SCT250=

USA.gov is the U.S. government's official web portal to all federal, state and local government web resources and services.